Airfield :
LOGIN :

Register | Disclaimer

   EN    FR    IT 

 










Legend :    VFR   Marginal VFR   IFR   Intensive IFR   Very Intensive IFR
Visi :
Ceiling :
>= 8 km
>= 3000ft
5 to 8 km
1000 to 3000 ft
1500m to 5 km
500 to 1000 ft
800 to 1500m
200 to 500 ft
< 800m
< 200 ft
Symbols :   Thunderstorms  Fog  Heavy snow  Heavy precipitations  Wind > 20 kt
SIGMETs :     Misc.  Thunderstorms  Icing  Turbulence  Mountain Waves  Volcanic Ashes







- Airport Elevation : 306 ft
- IATA code : EMA
- Download approach charts


EGNX - Nottingham East Midlands

CURRENT METAR :
  • 150950Z 30010KT 9999 FEW021 03/01 Q0998

EXPIRED METARs :
  • 150920Z 30013KT 9999 FEW030 02/M00 Q0998
  • 150850Z 30011KT CAVOK 01/00 Q0997
  • 150820Z 31013KT CAVOK 02/00 Q0996
  • 150750Z 33016KT CAVOK 02/01 Q0995
  • 150720Z 33015KT CAVOK 02/00 Q0994

TAF TAF EGNX
Valid from the 15 at 06:00 until the 16 at 06:00 UTC


150519Z 1506/1606 34010KT 9999 SCT030
TEMPO 1506/1517 33015G25KT 6000 SHRA BKN012
PROB30
TEMPO 1506/1509 3000 RASN BKN005
BECMG 1521/1524 VRB05KT
ATIS : +44 1332 852 852 (ext 3201)
No reported NOTAMs for that airfield.



MET'MAP, your aeronautical weather chart ! - Copyright ORBIFLY December 2007 - Disclaimer

ORBIFLY MET'MAP TEAM :

Programming & Development : Alexandra Zaïnal
Concept & Development : Baudouin d'Aumeries
Co-Development & Prog : Marc-Olivier Méhu
Technical & hardware support : Manuel Goepfert

Contact : metmap@orbifly.com




SOURCES & CREDITS :

   NOAA